sensor_id;sensor_type;location;lat;lon;timestamp;temperature;humidity
13174;DHT22;6652;48.802;9.190;2023-08-08T00:01:37;13.90;99.90
13174;DHT22;6652;48.802;9.190;2023-08-08T00:04:10;13.90;99.90
13174;DHT22;6652;48.802;9.190;2023-08-08T00:06:40;13.90;99.90
13174;DHT22;6652;48.802;9.190;2023-08-08T00:09:09;14.00;99.90
13174;DHT22;6652;48.802;9.190;2023-08-08T00:11:37;14.00;99.90
13174;DHT22;6652;48.802;9.190;2023-08-08T00:14:05;14.00;99.90
13174;DHT22;6652;48.802;9.190;2023-08-08T00:16:34;14.10;99.90
13174;DHT22;6652;48.802;9.190;2023-08-08T00:19:02;14.20;99.90
13174;DHT22;6652;48.802;9.190;2023-08-08T00:21:32;14.20;99.90
13174;DHT22;6652;48.802;9.190;2023-08-08T00:24:04;14.30;99.90
13174;DHT22;6652;48.802;9.190;2023-08-08T00:26:32;14.40;99.90
13174;DHT22;6652;48.802;9.190;2023-08-08T00:29:00;14.50;99.90
13174;DHT22;6652;48.802;9.190;2023-08-08T00:31:28;14.50;99.90
13174;DHT22;6652;48.802;9.190;2023-08-08T00:33:55;14.60;99.90
13174;DHT22;6652;48.802;9.190;2023-08-08T00:36:22;14.70;99.90
13174;DHT22;6652;48.802;9.190;2023-08-08T00:38:50;14.70;99.90
13174;DHT22;6652;48.802;9.190;2023-08-08T00:41:17;15.00;99.90
13174;DHT22;6652;48.802;9.190;2023-08-08T00:43:44;14.70;99.90
13174;DHT22;6652;48.802;9.190;2023-08-08T00:46:11;14.70;99.90
13174;DHT22;6652;48.802;9.190;2023-08-08T00:48:38;14.70;99.90
13174;DHT22;6652;48.802;9.190;2023-08-08T00:51:05;14.80;99.90
13174;DHT22;6652;48.802;9.190;2023-08-08T00:53:32;15.00;99.90
13174;DHT22;6652;48.802;9.190;2023-08-08T00:56:01;14.80;99.90
13174;DHT22;6652;48.802;9.190;2023-08-08T00:58:28;14.80;99.90
13174;DHT22;6652;48.802;9.190;2023-08-08T01:00:55;14.80;99.90
13174;DHT22;6652;48.802;9.190;2023-08-08T01:03:25;14.80;99.90
13174;DHT22;6652;48.802;9.190;2023-08-08T01:05:57;15.10;99.90
13174;DHT22;6652;48.802;9.190;2023-08-08T01:08:29;14.80;99.90
13174;DHT22;6652;48.802;9.190;2023-08-08T01:11:01;15.50;99.90
13174;DHT22;6652;48.802;9.190;2023-08-08T01:13:30;14.80;99.90
13174;DHT22;6652;48.802;9.190;2023-08-08T01:15:57;14.70;99.90
13174;DHT22;6652;48.802;9.190;2023-08-08T01:18:25;14.80;99.90
13174;DHT22;6652;48.802;9.190;2023-08-08T01:20:53;14.70;99.90
13174;DHT22;6652;48.802;9.190;2023-08-08T01:23:26;14.70;99.90
13174;DHT22;6652;48.802;9.190;2023-08-08T01:25:57;14.70;99.90
13174;DHT22;6652;48.802;9.190;2023-08-08T01:28:24;14.80;99.90
13174;DHT22;6652;48.802;9.190;2023-08-08T01:30:51;14.70;99.90
13174;DHT22;6652;48.802;9.190;2023-08-08T01:33:19;14.80;99.90
13174;DHT22;6652;48.802;9.190;2023-08-08T01:35:50;14.80;99.90
13174;DHT22;6652;48.802;9.190;2023-08-08T01:38:20;14.80;99.90
13174;DHT22;6652;48.802;9.190;2023-08-08T01:40:51;14.80;99.90
13174;DHT22;6652;48.802;9.190;2023-08-08T01:43:20;14.80;99.90
13174;DHT22;6652;48.802;9.190;2023-08-08T01:45:48;14.80;99.90
13174;DHT22;6652;48.802;9.190;2023-08-08T01:48:15;14.90;99.90
13174;DHT22;6652;48.802;9.190;2023-08-08T01:50:41;14.90;99.90
13174;DHT22;6652;48.802;9.190;2023-08-08T01:53:08;15.00;99.90
13174;DHT22;6652;48.802;9.190;2023-08-08T01:55:35;15.00;99.90
13174;DHT22;6652;48.802;9.190;2023-08-08T01:58:02;14.90;99.90
13174;DHT22;6652;48.802;9.190;2023-08-08T02:00:30;14.90;99.90
13174;DHT22;6652;48.802;9.190;2023-08-08T02:02:57;15.00;99.90
13174;DHT22;6652;48.802;9.190;2023-08-08T02:05:24;15.00;99.90
13174;DHT22;6652;48.802;9.190;2023-08-08T02:07:50;15.00;99.90
13174;DHT22;6652;48.802;9.190;2023-08-08T02:10:17;15.10;99.90
13174;DHT22;6652;48.802;9.190;2023-08-08T02:12:44;15.00;99.90
13174;DHT22;6652;48.802;9.190;2023-08-08T02:15:11;15.10;99.90
13174;DHT22;6652;48.802;9.190;2023-08-08T02:17:39;15.10;99.90
13174;DHT22;6652;48.802;9.190;2023-08-08T02:20:06;15.40;99.90
13174;DHT22;6652;48.802;9.190;2023-08-08T02:22:33;15.10;99.90
13174;DHT22;6652;48.802;9.190;2023-08-08T02:25:00;15.10;99.90
13174;DHT22;6652;48.802;9.190;2023-08-08T02:27:27;15.10;99.90
13174;DHT22;6652;48.802;9.190;2023-08-08T02:29:54;15.00;99.90
13174;DHT22;6652;48.802;9.190;2023-08-08T02:32:20;15.00;99.90
13174;DHT22;6652;48.802;9.190;2023-08-08T02:34:49;15.00;99.90
13174;DHT22;6652;48.802;9.190;2023-08-08T02:37:16;14.90;99.90
13174;DHT22;6652;48.802;9.190;2023-08-08T02:39:43;15.10;99.90
13174;DHT22;6652;48.802;9.190;2023-08-08T02:42:10;14.80;99.90
13174;DHT22;6652;48.802;9.190;2023-08-08T02:44:37;14.70;99.90
13174;DHT22;6652;48.802;9.190;2023-08-08T02:47:04;14.70;99.90
13174;DHT22;6652;48.802;9.190;2023-08-08T02:49:31;14.60;99.90
13174;DHT22;6652;48.802;9.190;2023-08-08T02:52:00;14.60;99.90
13174;DHT22;6652;48.802;9.190;2023-08-08T02:54:27;14.70;99.90
13174;DHT22;6652;48.802;9.190;2023-08-08T02:56:54;14.50;99.90
13174;DHT22;6652;48.802;9.190;2023-08-08T02:59:21;14.50;99.90
13174;DHT22;6652;48.802;9.190;2023-08-08T03:01:48;14.40;99.90
13174;DHT22;6652;48.802;9.190;2023-08-08T03:04:14;14.40;99.90
13174;DHT22;6652;48.802;9.190;2023-08-08T03:06:41;14.40;99.90
13174;DHT22;6652;48.802;9.190;2023-08-08T03:09:09;14.40;99.90
13174;DHT22;6652;48.802;9.190;2023-08-08T03:11:36;14.50;99.90
13174;DHT22;6652;48.802;9.190;2023-08-08T03:14:06;14.30;99.90
13174;DHT22;6652;48.802;9.190;2023-08-08T03:16:33;14.30;99.90
13174;DHT22;6652;48.802;9.190;2023-08-08T03:19:00;14.20;99.90
13174;DHT22;6652;48.802;9.190;2023-08-08T03:21:27;14.30;99.90
13174;DHT22;6652;48.802;9.190;2023-08-08T03:23:54;14.20;99.90
13174;DHT22;6652;48.802;9.190;2023-08-08T03:26:22;14.20;99.90
13174;DHT22;6652;48.802;9.190;2023-08-08T03:28:49;14.20;99.90
13174;DHT22;6652;48.802;9.190;2023-08-08T03:31:18;14.20;99.90
13174;DHT22;6652;48.802;9.190;2023-08-08T03:33:45;14.20;99.90
13174;DHT22;6652;48.802;9.190;2023-08-08T03:36:13;14.20;99.90
13174;DHT22;6652;48.802;9.190;2023-08-08T03:38:40;14.20;99.90
13174;DHT22;6652;48.802;9.190;2023-08-08T03:41:09;14.20;99.90
13174;DHT22;6652;48.802;9.190;2023-08-08T03:43:38;14.20;99.90
13174;DHT22;6652;48.802;9.190;2023-08-08T03:46:04;14.30;99.90
13174;DHT22;6652;48.802;9.190;2023-08-08T03:48:31;14.30;99.90
13174;DHT22;6652;48.802;9.190;2023-08-08T03:50:58;14.40;99.90
13174;DHT22;6652;48.802;9.190;2023-08-08T03:53:25;14.40;99.90
13174;DHT22;6652;48.802;9.190;2023-08-08T03:55:52;14.50;99.90
13174;DHT22;6652;48.802;9.190;2023-08-08T03:58:18;14.50;99.90
13174;DHT22;6652;48.802;9.190;2023-08-08T04:00:47;14.60;99.90
13174;DHT22;6652;48.802;9.190;2023-08-08T04:03:14;14.50;99.90
13174;DHT22;6652;48.802;9.190;2023-08-08T04:05:41;14.70;99.90
13174;DHT22;6652;48.802;9.190;2023-08-08T04:08:07;14.70;99.90
13174;DHT22;6652;48.802;9.190;2023-08-08T04:10:34;14.60;99.90
13174;DHT22;6652;48.802;9.190;2023-08-08T04:13:01;14.70;99.90
13174;DHT22;6652;48.802;9.190;2023-08-08T04:15:28;14.70;99.90
13174;DHT22;6652;48.802;9.190;2023-08-08T04:17:56;14.70;99.90
13174;DHT22;6652;48.802;9.190;2023-08-08T04:20:23;14.80;99.90
13174;DHT22;6652;48.802;9.190;2023-08-08T04:22:50;14.80;99.90
13174;DHT22;6652;48.802;9.190;2023-08-08T04:25:17;14.80;99.90
13174;DHT22;6652;48.802;9.190;2023-08-08T04:27:45;14.80;99.90
13174;DHT22;6652;48.802;9.190;2023-08-08T04:30:12;14.80;99.90
13174;DHT22;6652;48.802;9.190;2023-08-08T04:32:39;14.80;99.90
13174;DHT22;6652;48.802;9.190;2023-08-08T04:35:07;14.80;99.90
13174;DHT22;6652;48.802;9.190;2023-08-08T04:37:34;14.90;99.90
13174;DHT22;6652;48.802;9.190;2023-08-08T04:40:01;14.90;99.90
13174;DHT22;6652;48.802;9.190;2023-08-08T04:42:30;14.90;99.90
13174;DHT22;6652;48.802;9.190;2023-08-08T04:44:57;14.90;99.90
13174;DHT22;6652;48.802;9.190;2023-08-08T04:47:24;15.00;99.90
13174;DHT22;6652;48.802;9.190;2023-08-08T04:49:51;15.10;99.90
13174;DHT22;6652;48.802;9.190;2023-08-08T04:52:19;15.10;99.90
13174;DHT22;6652;48.802;9.190;2023-08-08T04:54:46;15.40;99.90
13174;DHT22;6652;48.802;9.190;2023-08-08T04:57:13;16.00;99.90
13174;DHT22;6652;48.802;9.190;2023-08-08T04:59:39;16.40;99.90
13174;DHT22;6652;48.802;9.190;2023-08-08T05:02:16;16.80;99.90
13174;DHT22;6652;48.802;9.190;2023-08-08T05:04:43;17.40;99.90
13174;DHT22;6652;48.802;9.190;2023-08-08T05:07:09;17.60;99.90
13174;DHT22;6652;48.802;9.190;2023-08-08T05:09:38;17.40;99.90
13174;DHT22;6652;48.802;9.190;2023-08-08T05:12:05;17.40;99.90
13174;DHT22;6652;48.802;9.190;2023-08-08T05:14:32;17.30;99.90
13174;DHT22;6652;48.802;9.190;2023-08-08T05:16:59;17.50;99.90
13174;DHT22;6652;48.802;9.190;2023-08-08T05:19:25;18.00;99.90
13174;DHT22;6652;48.802;9.190;2023-08-08T05:21:53;18.70;99.90
13174;DHT22;6652;48.802;9.190;2023-08-08T05:24:19;19.50;99.90
13174;DHT22;6652;48.802;9.190;2023-08-08T05:26:47;20.20;99.90
13174;DHT22;6652;48.802;9.190;2023-08-08T05:29:16;21.00;99.90
13174;DHT22;6652;48.802;9.190;2023-08-08T05:31:43;21.70;99.90
13174;DHT22;6652;48.802;9.190;2023-08-08T05:34:10;21.90;99.90
13174;DHT22;6652;48.802;9.190;2023-08-08T05:36:37;22.20;99.90
13174;DHT22;6652;48.802;9.190;2023-08-08T05:39:04;22.40;99.90
13174;DHT22;6652;48.802;9.190;2023-08-08T05:41:32;22.30;99.90
13174;DHT22;6652;48.802;9.190;2023-08-08T05:44:01;22.30;99.90
13174;DHT22;6652;48.802;9.190;2023-08-08T05:46:28;22.60;99.90
13174;DHT22;6652;48.802;9.190;2023-08-08T05:48:54;23.30;99.90
13174;DHT22;6652;48.802;9.190;2023-08-08T05:51:21;23.80;99.90
13174;DHT22;6652;48.802;9.190;2023-08-08T05:53:48;24.00;99.90
13174;DHT22;6652;48.802;9.190;2023-08-08T05:56:15;24.50;99.90
13174;DHT22;6652;48.802;9.190;2023-08-08T05:58:55;24.70;99.30
13174;DHT22;6652;48.802;9.190;2023-08-08T06:01:23;25.20;98.20
13174;DHT22;6652;48.802;9.190;2023-08-08T06:03:50;25.40;97.50
13174;DHT22;6652;48.802;9.190;2023-08-08T06:06:18;26.00;96.50
13174;DHT22;6652;48.802;9.190;2023-08-08T06:08:45;26.30;94.70
13174;DHT22;6652;48.802;9.190;2023-08-08T06:11:12;26.60;94.60
13174;DHT22;6652;48.802;9.190;2023-08-08T06:13:39;27.10;93.20
13174;DHT22;6652;48.802;9.190;2023-08-08T06:16:05;27.20;92.20
13174;DHT22;6652;48.802;9.190;2023-08-08T06:18:34;27.60;91.20
13174;DHT22;6652;48.802;9.190;2023-08-08T06:21:01;27.80;90.50
13174;DHT22;6652;48.802;9.190;2023-08-08T06:23:28;27.80;88.30
13174;DHT22;6652;48.802;9.190;2023-08-08T06:25:55;27.90;88.60
13174;DHT22;6652;48.802;9.190;2023-08-08T06:28:21;28.20;88.80
13174;DHT22;6652;48.802;9.190;2023-08-08T06:30:48;28.60;85.70
13174;DHT22;6652;48.802;9.190;2023-08-08T06:33:15;28.90;83.80
13174;DHT22;6652;48.802;9.190;2023-08-08T06:35:44;29.20;82.70
13174;DHT22;6652;48.802;9.190;2023-08-08T06:38:11;29.50;81.40
13174;DHT22;6652;48.802;9.190;2023-08-08T06:40:38;29.40;78.70
13174;DHT22;6652;48.802;9.190;2023-08-08T06:43:04;29.60;77.80
13174;DHT22;6652;48.802;9.190;2023-08-08T06:45:31;29.80;76.10
13174;DHT22;6652;48.802;9.190;2023-08-08T06:47:58;29.60;74.60
13174;DHT22;6652;48.802;9.190;2023-08-08T06:50:25;28.90;75.80
13174;DHT22;6652;48.802;9.190;2023-08-08T06:52:53;28.50;76.20
13174;DHT22;6652;48.802;9.190;2023-08-08T06:55:20;28.30;77.50
13174;DHT22;6652;48.802;9.190;2023-08-08T06:57:46;28.70;78.60
13174;DHT22;6652;48.802;9.190;2023-08-08T07:00:13;29.20;77.80
13174;DHT22;6652;48.802;9.190;2023-08-08T07:02:41;29.50;74.40
13174;DHT22;6652;48.802;9.190;2023-08-08T07:05:08;29.60;74.60
13174;DHT22;6652;48.802;9.190;2023-08-08T07:07:36;29.80;72.80
13174;DHT22;6652;48.802;9.190;2023-08-08T07:10:06;29.60;73.30
13174;DHT22;6652;48.802;9.190;2023-08-08T07:12:33;29.60;73.20
13174;DHT22;6652;48.802;9.190;2023-08-08T07:15:00;29.90;71.80
13174;DHT22;6652;48.802;9.190;2023-08-08T07:17:27;30.20;71.00
13174;DHT22;6652;48.802;9.190;2023-08-08T07:19:54;30.00;69.70
13174;DHT22;6652;48.802;9.190;2023-08-08T07:22:22;29.80;69.20
13174;DHT22;6652;48.802;9.190;2023-08-08T07:24:49;29.60;70.90
13174;DHT22;6652;48.802;9.190;2023-08-08T07:27:17;29.70;71.40
13174;DHT22;6652;48.802;9.190;2023-08-08T07:29:44;29.90;70.20
13174;DHT22;6652;48.802;9.190;2023-08-08T07:32:11;30.10;69.70
13174;DHT22;6652;48.802;9.190;2023-08-08T07:34:37;30.50;70.20
13174;DHT22;6652;48.802;9.190;2023-08-08T07:37:05;30.70;67.50
13174;DHT22;6652;48.802;9.190;2023-08-08T07:39:32;31.00;67.80
13174;DHT22;6652;48.802;9.190;2023-08-08T07:41:59;31.70;66.60
13174;DHT22;6652;48.802;9.190;2023-08-08T07:44:27;32.30;64.70
13174;DHT22;6652;48.802;9.190;2023-08-08T08:17:59;27.90;63.70
13174;DHT22;6652;48.802;9.190;2023-08-08T08:20:26;27.70;65.60
13174;DHT22;6652;48.802;9.190;2023-08-08T08:22:53;27.60;65.20
13174;DHT22;6652;48.802;9.190;2023-08-08T08:25:20;27.40;65.30
13174;DHT22;6652;48.802;9.190;2023-08-08T08:27:46;27.70;66.90
13174;DHT22;6652;48.802;9.190;2023-08-08T08:30:13;27.30;66.90
13174;DHT22;6652;48.802;9.190;2023-08-08T08:32:41;27.30;67.20
13174;DHT22;6652;48.802;9.190;2023-08-08T08:35:10;27.40;67.70
13174;DHT22;6652;48.802;9.190;2023-08-08T08:37:38;26.90;69.40
13174;DHT22;6652;48.802;9.190;2023-08-08T08:40:09;27.00;69.30
13174;DHT22;6652;48.802;9.190;2023-08-08T08:42:37;27.20;70.20
13174;DHT22;6652;48.802;9.190;2023-08-08T08:45:05;28.00;69.80
13174;DHT22;6652;48.802;9.190;2023-08-08T08:47:33;28.80;66.70
13174;DHT22;6652;48.802;9.190;2023-08-08T08:50:02;29.10;64.10
13174;DHT22;6652;48.802;9.190;2023-08-08T08:52:31;29.10;64.00
13174;DHT22;6652;48.802;9.190;2023-08-08T08:54:58;29.00;63.60
13174;DHT22;6652;48.802;9.190;2023-08-08T08:57:28;28.70;64.20
13174;DHT22;6652;48.802;9.190;2023-08-08T08:59:58;28.90;66.10
13174;DHT22;6652;48.802;9.190;2023-08-08T09:02:25;29.60;63.30
13174;DHT22;6652;48.802;9.190;2023-08-08T09:04:52;30.50;62.10
13174;DHT22;6652;48.802;9.190;2023-08-08T09:07:20;31.00;60.10
13174;DHT22;6652;48.802;9.190;2023-08-08T09:09:51;31.40;59.70
13174;DHT22;6652;48.802;9.190;2023-08-08T09:12:19;31.90;59.20
13174;DHT22;6652;48.802;9.190;2023-08-08T09:14:45;31.90;56.40
13174;DHT22;6652;48.802;9.190;2023-08-08T09:17:14;31.50;58.00
13174;DHT22;6652;48.802;9.190;2023-08-08T09:19:43;31.50;57.40
13174;DHT22;6652;48.802;9.190;2023-08-08T09:22:11;31.40;57.20
13174;DHT22;6652;48.802;9.190;2023-08-08T09:24:39;32.10;57.30
13174;DHT22;6652;48.802;9.190;2023-08-08T09:27:07;32.00;57.30
13174;DHT22;6652;48.802;9.190;2023-08-08T09:29:35;32.00;57.70
13174;DHT22;6652;48.802;9.190;2023-08-08T09:32:03;31.70;55.60
13174;DHT22;6652;48.802;9.190;2023-08-08T09:34:30;31.10;56.00
13174;DHT22;6652;48.802;9.190;2023-08-08T09:36:57;31.00;57.10
13174;DHT22;6652;48.802;9.190;2023-08-08T09:39:24;30.80;55.90
13174;DHT22;6652;48.802;9.190;2023-08-08T09:41:51;31.10;56.10
13174;DHT22;6652;48.802;9.190;2023-08-08T09:44:23;31.90;55.10
13174;DHT22;6652;48.802;9.190;2023-08-08T09:46:51;32.60;53.90
13174;DHT22;6652;48.802;9.190;2023-08-08T09:49:19;32.60;53.10
13174;DHT22;6652;48.802;9.190;2023-08-08T09:51:48;32.80;52.40
13174;DHT22;6652;48.802;9.190;2023-08-08T09:54:15;32.80;52.20
13174;DHT22;6652;48.802;9.190;2023-08-08T09:56:42;32.30;52.40
13174;DHT22;6652;48.802;9.190;2023-08-08T09:59:09;32.20;52.20
13174;DHT22;6652;48.802;9.190;2023-08-08T10:01:39;31.50;52.90
13174;DHT22;6652;48.802;9.190;2023-08-08T10:04:07;30.80;52.10
13174;DHT22;6652;48.802;9.190;2023-08-08T10:06:33;30.40;55.20
13174;DHT22;6652;48.802;9.190;2023-08-08T10:09:02;30.60;53.70
13174;DHT22;6652;48.802;9.190;2023-08-08T10:11:30;30.40;53.70
13174;DHT22;6652;48.802;9.190;2023-08-08T10:13:57;29.90;54.90
13174;DHT22;6652;48.802;9.190;2023-08-08T10:16:27;30.30;54.60
13174;DHT22;6652;48.802;9.190;2023-08-08T10:19:01;30.40;53.40
13174;DHT22;6652;48.802;9.190;2023-08-08T10:21:32;30.00;53.40
13174;DHT22;6652;48.802;9.190;2023-08-08T10:24:04;30.40;53.00
13174;DHT22;6652;48.802;9.190;2023-08-08T10:26:31;30.40;52.50
13174;DHT22;6652;48.802;9.190;2023-08-08T10:28:59;30.10;52.80
13174;DHT22;6652;48.802;9.190;2023-08-08T10:31:27;29.20;52.10
13174;DHT22;6652;48.802;9.190;2023-08-08T10:34:03;28.80;53.40
13174;DHT22;6652;48.802;9.190;2023-08-08T10:36:47;28.90;53.50
13174;DHT22;6652;48.802;9.190;2023-08-08T10:39:18;29.40;53.60
13174;DHT22;6652;48.802;9.190;2023-08-08T10:41:47;29.00;53.70
13174;DHT22;6652;48.802;9.190;2023-08-08T10:44:21;28.50;54.40
13174;DHT22;6652;48.802;9.190;2023-08-08T10:46:49;28.00;55.70
13174;DHT22;6652;48.802;9.190;2023-08-08T10:49:18;28.30;56.10
13174;DHT22;6652;48.802;9.190;2023-08-08T10:51:46;28.40;55.50
13174;DHT22;6652;48.802;9.190;2023-08-08T10:54:16;28.20;55.60
13174;DHT22;6652;48.802;9.190;2023-08-08T10:56:53;27.90;54.80
13174;DHT22;6652;48.802;9.190;2023-08-08T10:59:24;27.70;56.60
13174;DHT22;6652;48.802;9.190;2023-08-08T11:01:52;27.70;56.10
13174;DHT22;6652;48.802;9.190;2023-08-08T11:04:21;27.30;57.40
13174;DHT22;6652;48.802;9.190;2023-08-08T11:06:49;27.30;57.00
13174;DHT22;6652;48.802;9.190;2023-08-08T11:09:16;26.80;56.70
13174;DHT22;6652;48.802;9.190;2023-08-08T11:11:44;26.60;57.80
13174;DHT22;6652;48.802;9.190;2023-08-08T11:14:12;26.70;58.50
13174;DHT22;6652;48.802;9.190;2023-08-08T11:16:40;26.60;57.80
13174;DHT22;6652;48.802;9.190;2023-08-08T11:19:07;26.60;57.40
13174;DHT22;6652;48.802;9.190;2023-08-08T11:21:36;26.60;57.90
13174;DHT22;6652;48.802;9.190;2023-08-08T11:24:05;26.80;57.40
13174;DHT22;6652;48.802;9.190;2023-08-08T11:26:33;27.00;56.90
13174;DHT22;6652;48.802;9.190;2023-08-08T11:29:01;27.10;56.60
13174;DHT22;6652;48.802;9.190;2023-08-08T11:31:29;26.90;56.40
13174;DHT22;6652;48.802;9.190;2023-08-08T11:33:58;27.00;56.10
13174;DHT22;6652;48.802;9.190;2023-08-08T11:36:26;26.90;57.10
13174;DHT22;6652;48.802;9.190;2023-08-08T11:38:57;27.00;56.50
13174;DHT22;6652;48.802;9.190;2023-08-08T11:41:24;27.10;56.30
13174;DHT22;6652;48.802;9.190;2023-08-08T11:43:52;27.00;53.70
13174;DHT22;6652;48.802;9.190;2023-08-08T11:46:23;26.90;53.60
13174;DHT22;6652;48.802;9.190;2023-08-08T11:48:50;26.90;54.10
13174;DHT22;6652;48.802;9.190;2023-08-08T11:51:16;26.90;55.50
13174;DHT22;6652;48.802;9.190;2023-08-08T11:53:51;27.20;56.20
13174;DHT22;6652;48.802;9.190;2023-08-08T11:56:21;27.10;55.90
13174;DHT22;6652;48.802;9.190;2023-08-08T11:58:49;26.90;56.10
13174;DHT22;6652;48.802;9.190;2023-08-08T12:01:19;26.70;55.80
13174;DHT22;6652;48.802;9.190;2023-08-08T12:03:46;27.10;56.50
13174;DHT22;6652;48.802;9.190;2023-08-08T12:06:14;27.30;57.30
13174;DHT22;6652;48.802;9.190;2023-08-08T12:08:42;26.70;57.50
13174;DHT22;6652;48.802;9.190;2023-08-08T12:11:12;26.40;57.40
13174;DHT22;6652;48.802;9.190;2023-08-08T12:13:41;26.50;56.70
13174;DHT22;6652;48.802;9.190;2023-08-08T12:16:09;26.70;56.40
13174;DHT22;6652;48.802;9.190;2023-08-08T12:18:37;26.50;56.10
13174;DHT22;6652;48.802;9.190;2023-08-08T12:21:04;26.50;55.70
13174;DHT22;6652;48.802;9.190;2023-08-08T12:23:33;26.40;56.60
13174;DHT22;6652;48.802;9.190;2023-08-08T12:26:02;26.70;56.10
13174;DHT22;6652;48.802;9.190;2023-08-08T12:28:30;26.90;55.80
13174;DHT22;6652;48.802;9.190;2023-08-08T12:30:59;26.80;55.10
13174;DHT22;6652;48.802;9.190;2023-08-08T12:33:26;26.80;54.00
13174;DHT22;6652;48.802;9.190;2023-08-08T12:35:53;26.70;54.70
13174;DHT22;6652;48.802;9.190;2023-08-08T12:38:20;27.20;55.10
13174;DHT22;6652;48.802;9.190;2023-08-08T12:40:48;26.60;56.00
13174;DHT22;6652;48.802;9.190;2023-08-08T12:43:14;26.70;57.30
13174;DHT22;6652;48.802;9.190;2023-08-08T12:45:43;26.80;57.40
13174;DHT22;6652;48.802;9.190;2023-08-08T12:48:11;27.00;58.30
13174;DHT22;6652;48.802;9.190;2023-08-08T12:50:38;27.00;57.90
13174;DHT22;6652;48.802;9.190;2023-08-08T12:53:06;27.00;57.90
13174;DHT22;6652;48.802;9.190;2023-08-08T12:55:33;27.10;57.40
13174;DHT22;6652;48.802;9.190;2023-08-08T12:58:01;27.10;57.10
13174;DHT22;6652;48.802;9.190;2023-08-08T13:00:27;27.00;57.00
13174;DHT22;6652;48.802;9.190;2023-08-08T13:02:54;27.00;57.00
13174;DHT22;6652;48.802;9.190;2023-08-08T13:05:23;26.90;56.50
13174;DHT22;6652;48.802;9.190;2023-08-08T13:07:50;26.90;56.90
13174;DHT22;6652;48.802;9.190;2023-08-08T13:10:17;26.90;56.60
13174;DHT22;6652;48.802;9.190;2023-08-08T13:12:45;27.00;57.30
13174;DHT22;6652;48.802;9.190;2023-08-08T13:15:12;26.80;57.60
13174;DHT22;6652;48.802;9.190;2023-08-08T13:17:39;26.50;58.10
13174;DHT22;6652;48.802;9.190;2023-08-08T13:20:06;26.50;59.00
13174;DHT22;6652;48.802;9.190;2023-08-08T13:22:35;26.40;59.00
13174;DHT22;6652;48.802;9.190;2023-08-08T13:25:02;26.70;59.90
13174;DHT22;6652;48.802;9.190;2023-08-08T13:27:30;26.20;60.60
13174;DHT22;6652;48.802;9.190;2023-08-08T13:29:57;26.10;60.40
13174;DHT22;6652;48.802;9.190;2023-08-08T13:32:24;26.20;61.60
13174;DHT22;6652;48.802;9.190;2023-08-08T13:34:51;25.90;62.10
13174;DHT22;6652;48.802;9.190;2023-08-08T13:37:18;26.00;64.40
13174;DHT22;6652;48.802;9.190;2023-08-08T13:39:46;26.00;63.60
13174;DHT22;6652;48.802;9.190;2023-08-08T13:42:13;26.10;63.90
13174;DHT22;6652;48.802;9.190;2023-08-08T13:44:40;26.30;64.20
13174;DHT22;6652;48.802;9.190;2023-08-08T13:47:07;26.30;63.10
13174;DHT22;6652;48.802;9.190;2023-08-08T13:49:34;26.30;59.50
13174;DHT22;6652;48.802;9.190;2023-08-08T13:52:01;26.20;58.90
13174;DHT22;6652;48.802;9.190;2023-08-08T13:54:28;26.20;59.80
13174;DHT22;6652;48.802;9.190;2023-08-08T13:56:56;26.20;59.00
13174;DHT22;6652;48.802;9.190;2023-08-08T13:59:24;26.00;59.40
13174;DHT22;6652;48.802;9.190;2023-08-08T14:01:52;26.00;59.70
13174;DHT22;6652;48.802;9.190;2023-08-08T14:04:19;26.20;61.10
13174;DHT22;6652;48.802;9.190;2023-08-08T14:06:46;25.70;61.30
13174;DHT22;6652;48.802;9.190;2023-08-08T14:09:12;25.50;61.70
13174;DHT22;6652;48.802;9.190;2023-08-08T14:11:39;25.40;61.90
13174;DHT22;6652;48.802;9.190;2023-08-08T14:14:08;25.40;63.20
13174;DHT22;6652;48.802;9.190;2023-08-08T14:16:35;25.20;63.60
13174;DHT22;6652;48.802;9.190;2023-08-08T14:19:02;25.10;63.40
13174;DHT22;6652;48.802;9.190;2023-08-08T14:21:29;24.90;63.90
13174;DHT22;6652;48.802;9.190;2023-08-08T14:23:56;24.70;64.40
13174;DHT22;6652;48.802;9.190;2023-08-08T14:26:23;24.80;64.20
13174;DHT22;6652;48.802;9.190;2023-08-08T14:28:49;24.90;64.80
13174;DHT22;6652;48.802;9.190;2023-08-08T14:31:18;24.80;64.60
13174;DHT22;6652;48.802;9.190;2023-08-08T14:33:45;25.00;65.60
13174;DHT22;6652;48.802;9.190;2023-08-08T14:36:11;24.90;66.10
13174;DHT22;6652;48.802;9.190;2023-08-08T14:38:38;24.90;65.10
13174;DHT22;6652;48.802;9.190;2023-08-08T14:41:05;24.80;65.00
13174;DHT22;6652;48.802;9.190;2023-08-08T14:43:32;24.80;65.10
13174;DHT22;6652;48.802;9.190;2023-08-08T14:45:59;24.70;65.00
13174;DHT22;6652;48.802;9.190;2023-08-08T14:48:28;24.70;65.50
13174;DHT22;6652;48.802;9.190;2023-08-08T14:50:55;24.60;66.10
13174;DHT22;6652;48.802;9.190;2023-08-08T14:53:22;24.50;66.20
13174;DHT22;6652;48.802;9.190;2023-08-08T14:55:49;24.30;66.10
13174;DHT22;6652;48.802;9.190;2023-08-08T14:58:16;24.30;66.60
13174;DHT22;6652;48.802;9.190;2023-08-08T15:00:44;24.20;67.10
13174;DHT22;6652;48.802;9.190;2023-08-08T15:03:11;24.30;67.80
13174;DHT22;6652;48.802;9.190;2023-08-08T15:05:42;24.40;68.10
13174;DHT22;6652;48.802;9.190;2023-08-08T15:08:11;24.20;68.00
13174;DHT22;6652;48.802;9.190;2023-08-08T15:10:38;24.10;68.30
13174;DHT22;6652;48.802;9.190;2023-08-08T15:13:05;24.00;68.50
13174;DHT22;6652;48.802;9.190;2023-08-08T15:15:31;24.00;69.10
13174;DHT22;6652;48.802;9.190;2023-08-08T15:17:58;23.80;69.70
13174;DHT22;6652;48.802;9.190;2023-08-08T15:20:25;23.60;70.60
13174;DHT22;6652;48.802;9.190;2023-08-08T15:22:53;23.90;71.60
13174;DHT22;6652;48.802;9.190;2023-08-08T15:25:20;23.50;71.30
13174;DHT22;6652;48.802;9.190;2023-08-08T15:27:47;23.30;71.80
13174;DHT22;6652;48.802;9.190;2023-08-08T15:30:14;23.50;72.30
13174;DHT22;6652;48.802;9.190;2023-08-08T15:32:41;23.70;72.50
13174;DHT22;6652;48.802;9.190;2023-08-08T15:35:08;24.00;72.00
13174;DHT22;6652;48.802;9.190;2023-08-08T15:37:35;24.30;70.80
13174;DHT22;6652;48.802;9.190;2023-08-08T15:40:05;24.30;69.30
13174;DHT22;6652;48.802;9.190;2023-08-08T15:42:32;24.20;69.30
13174;DHT22;6652;48.802;9.190;2023-08-08T15:44:59;24.10;69.90
13174;DHT22;6652;48.802;9.190;2023-08-08T15:47:25;24.00;70.80
13174;DHT22;6652;48.802;9.190;2023-08-08T15:49:53;23.90;71.30
13174;DHT22;6652;48.802;9.190;2023-08-08T15:52:20;23.90;71.20
13174;DHT22;6652;48.802;9.190;2023-08-08T15:54:47;23.60;70.70
13174;DHT22;6652;48.802;9.190;2023-08-08T15:57:15;23.50;71.50
13174;DHT22;6652;48.802;9.190;2023-08-08T15:59:42;23.30;72.40
13174;DHT22;6652;48.802;9.190;2023-08-08T16:02:09;23.10;72.60
13174;DHT22;6652;48.802;9.190;2023-08-08T16:04:36;23.10;72.60
13174;DHT22;6652;48.802;9.190;2023-08-08T16:07:03;23.10;72.90
13174;DHT22;6652;48.802;9.190;2023-08-08T16:09:30;23.20;73.60
13174;DHT22;6652;48.802;9.190;2023-08-08T16:11:57;23.20;73.40
13174;DHT22;6652;48.802;9.190;2023-08-08T16:14:26;23.30;73.40
13174;DHT22;6652;48.802;9.190;2023-08-08T16:16:54;23.50;73.40
13174;DHT22;6652;48.802;9.190;2023-08-08T16:19:21;23.50;73.40